sensor_id;sensor_type;location;lat;lon;timestamp;temperature;humidity
25582;DHT22;13462;50.764;4.332;2023-10-19T00:01:10;16.10;99.90
25582;DHT22;13462;50.764;4.332;2023-10-19T00:03:37;16.10;99.90
25582;DHT22;13462;50.764;4.332;2023-10-19T00:06:03;16.20;99.90
25582;DHT22;13462;50.764;4.332;2023-10-19T00:08:30;16.30;99.90
25582;DHT22;13462;50.764;4.332;2023-10-19T00:11:07;16.30;99.90
25582;DHT22;13462;50.764;4.332;2023-10-19T00:13:33;16.30;99.90
25582;DHT22;13462;50.764;4.332;2023-10-19T00:16:01;16.30;99.90
25582;DHT22;13462;50.764;4.332;2023-10-19T00:18:32;16.30;99.90
25582;DHT22;13462;50.764;4.332;2023-10-19T00:21:00;16.30;99.90
25582;DHT22;13462;50.764;4.332;2023-10-19T00:23:36;16.30;99.90
25582;DHT22;13462;50.764;4.332;2023-10-19T00:26:05;16.30;99.90
25582;DHT22;13462;50.764;4.332;2023-10-19T00:28:38;16.40;99.90
25582;DHT22;13462;50.764;4.332;2023-10-19T00:31:04;16.30;99.90
25582;DHT22;13462;50.764;4.332;2023-10-19T00:33:34;16.30;99.90
25582;DHT22;13462;50.764;4.332;2023-10-19T00:36:04;16.30;99.90
25582;DHT22;13462;50.764;4.332;2023-10-19T00:38:39;16.30;99.90
25582;DHT22;13462;50.764;4.332;2023-10-19T00:41:07;16.20;99.90
25582;DHT22;13462;50.764;4.332;2023-10-19T00:43:38;16.20;99.90
25582;DHT22;13462;50.764;4.332;2023-10-19T00:46:14;16.20;99.90
25582;DHT22;13462;50.764;4.332;2023-10-19T00:48:53;16.20;99.90
25582;DHT22;13462;50.764;4.332;2023-10-19T00:51:25;16.20;99.90
25582;DHT22;13462;50.764;4.332;2023-10-19T00:54:04;16.20;99.90
25582;DHT22;13462;50.764;4.332;2023-10-19T00:56:34;16.10;99.90
25582;DHT22;13462;50.764;4.332;2023-10-19T00:59:01;16.10;99.90
25582;DHT22;13462;50.764;4.332;2023-10-19T01:01:41;16.10;99.90
25582;DHT22;13462;50.764;4.332;2023-10-19T01:04:11;16.10;99.90
25582;DHT22;13462;50.764;4.332;2023-10-19T01:06:46;16.20;99.90
25582;DHT22;13462;50.764;4.332;2023-10-19T01:09:27;16.20;99.90
25582;DHT22;13462;50.764;4.332;2023-10-19T01:11:53;16.20;99.90
25582;DHT22;13462;50.764;4.332;2023-10-19T01:14:22;16.20;99.90
25582;DHT22;13462;50.764;4.332;2023-10-19T01:16:54;16.10;99.90
25582;DHT22;13462;50.764;4.332;2023-10-19T01:19:23;16.10;99.90
25582;DHT22;13462;50.764;4.332;2023-10-19T01:21:49;16.20;99.90
25582;DHT22;13462;50.764;4.332;2023-10-19T01:24:19;16.10;99.90
25582;DHT22;13462;50.764;4.332;2023-10-19T01:26:53;16.10;99.90
25582;DHT22;13462;50.764;4.332;2023-10-19T01:29:19;16.00;99.90
25582;DHT22;13462;50.764;4.332;2023-10-19T01:31:52;16.10;99.90
25582;DHT22;13462;50.764;4.332;2023-10-19T01:34:32;16.20;99.90
25582;DHT22;13462;50.764;4.332;2023-10-19T01:36:59;16.20;99.90
25582;DHT22;13462;50.764;4.332;2023-10-19T01:39:29;16.20;99.90
25582;DHT22;13462;50.764;4.332;2023-10-19T01:41:55;16.20;99.90
25582;DHT22;13462;50.764;4.332;2023-10-19T01:44:20;16.20;99.90
25582;DHT22;13462;50.764;4.332;2023-10-19T01:46:46;16.20;99.90
25582;DHT22;13462;50.764;4.332;2023-10-19T01:49:13;16.20;99.90
25582;DHT22;13462;50.764;4.332;2023-10-19T01:51:39;16.10;99.90
25582;DHT22;13462;50.764;4.332;2023-10-19T01:54:08;16.10;99.90
25582;DHT22;13462;50.764;4.332;2023-10-19T01:56:34;16.00;99.90
25582;DHT22;13462;50.764;4.332;2023-10-19T01:59:02;16.00;99.90
25582;DHT22;13462;50.764;4.332;2023-10-19T02:01:29;16.10;99.90
25582;DHT22;13462;50.764;4.332;2023-10-19T02:04:02;16.10;99.90
25582;DHT22;13462;50.764;4.332;2023-10-19T02:06:34;16.00;99.90
25582;DHT22;13462;50.764;4.332;2023-10-19T02:09:11;16.00;99.90
25582;DHT22;13462;50.764;4.332;2023-10-19T02:11:53;16.00;99.90
25582;DHT22;13462;50.764;4.332;2023-10-19T02:14:23;15.80;99.90
25582;DHT22;13462;50.764;4.332;2023-10-19T02:16:54;15.80;99.90
25582;DHT22;13462;50.764;4.332;2023-10-19T02:19:22;15.90;99.90
25582;DHT22;13462;50.764;4.332;2023-10-19T02:21:54;15.80;99.90
25582;DHT22;13462;50.764;4.332;2023-10-19T02:24:24;15.70;99.90
25582;DHT22;13462;50.764;4.332;2023-10-19T02:26:52;15.70;99.90
25582;DHT22;13462;50.764;4.332;2023-10-19T02:29:18;15.70;99.90
25582;DHT22;13462;50.764;4.332;2023-10-19T02:31:44;15.60;99.90
25582;DHT22;13462;50.764;4.332;2023-10-19T02:34:11;15.60;99.90
25582;DHT22;13462;50.764;4.332;2023-10-19T02:36:41;15.60;99.90
25582;DHT22;13462;50.764;4.332;2023-10-19T02:39:09;15.50;99.90
25582;DHT22;13462;50.764;4.332;2023-10-19T02:41:42;15.50;99.90
25582;DHT22;13462;50.764;4.332;2023-10-19T02:46:42;15.40;99.90
25582;DHT22;13462;50.764;4.332;2023-10-19T02:49:09;15.30;99.90
25582;DHT22;13462;50.764;4.332;2023-10-19T02:51:39;15.30;99.90
25582;DHT22;13462;50.764;4.332;2023-10-19T02:54:07;15.40;99.90
25582;DHT22;13462;50.764;4.332;2023-10-19T02:56:33;15.30;99.90
25582;DHT22;13462;50.764;4.332;2023-10-19T02:59:01;15.30;99.90
25582;DHT22;13462;50.764;4.332;2023-10-19T03:01:30;15.30;99.90
25582;DHT22;13462;50.764;4.332;2023-10-19T03:03:59;15.30;99.90
25582;DHT22;13462;50.764;4.332;2023-10-19T03:06:30;15.30;99.90
25582;DHT22;13462;50.764;4.332;2023-10-19T03:08:59;15.40;99.90
25582;DHT22;13462;50.764;4.332;2023-10-19T03:11:27;15.40;99.90
25582;DHT22;13462;50.764;4.332;2023-10-19T03:13:56;15.40;99.90
25582;DHT22;13462;50.764;4.332;2023-10-19T03:16:23;15.40;99.90
25582;DHT22;13462;50.764;4.332;2023-10-19T03:18:49;15.50;99.90
25582;DHT22;13462;50.764;4.332;2023-10-19T03:21:17;15.50;99.90
25582;DHT22;13462;50.764;4.332;2023-10-19T03:23:44;15.60;99.90
25582;DHT22;13462;50.764;4.332;2023-10-19T03:26:10;15.60;99.90
25582;DHT22;13462;50.764;4.332;2023-10-19T03:28:54;15.50;99.90
25582;DHT22;13462;50.764;4.332;2023-10-19T03:31:26;15.60;99.90
25582;DHT22;13462;50.764;4.332;2023-10-19T03:33:53;15.60;99.90
25582;DHT22;13462;50.764;4.332;2023-10-19T03:36:25;15.70;99.90
25582;DHT22;13462;50.764;4.332;2023-10-19T03:38:52;15.60;99.90
25582;DHT22;13462;50.764;4.332;2023-10-19T03:41:19;15.60;99.90
25582;DHT22;13462;50.764;4.332;2023-10-19T03:43:48;15.60;99.90
25582;DHT22;13462;50.764;4.332;2023-10-19T03:46:14;15.60;99.90
25582;DHT22;13462;50.764;4.332;2023-10-19T03:48:48;15.60;99.90
25582;DHT22;13462;50.764;4.332;2023-10-19T03:51:14;15.60;99.90
25582;DHT22;13462;50.764;4.332;2023-10-19T03:53:40;15.60;99.90
25582;DHT22;13462;50.764;4.332;2023-10-19T03:56:12;15.70;99.90
25582;DHT22;13462;50.764;4.332;2023-10-19T03:58:38;15.60;99.90
25582;DHT22;13462;50.764;4.332;2023-10-19T04:01:05;15.70;99.90
25582;DHT22;13462;50.764;4.332;2023-10-19T04:03:32;15.70;99.90
25582;DHT22;13462;50.764;4.332;2023-10-19T04:06:00;15.70;99.90
25582;DHT22;13462;50.764;4.332;2023-10-19T04:08:26;15.70;99.90
25582;DHT22;13462;50.764;4.332;2023-10-19T04:10:52;15.80;99.90
25582;DHT22;13462;50.764;4.332;2023-10-19T04:13:36;15.80;99.90
25582;DHT22;13462;50.764;4.332;2023-10-19T04:16:02;15.80;99.90
25582;DHT22;13462;50.764;4.332;2023-10-19T04:18:28;15.90;99.90
25582;DHT22;13462;50.764;4.332;2023-10-19T04:20:54;15.90;99.90
25582;DHT22;13462;50.764;4.332;2023-10-19T04:23:24;15.80;99.90
25582;DHT22;13462;50.764;4.332;2023-10-19T04:25:55;15.90;99.90
25582;DHT22;13462;50.764;4.332;2023-10-19T04:28:29;15.90;99.90
25582;DHT22;13462;50.764;4.332;2023-10-19T04:31:03;15.80;99.90
25582;DHT22;13462;50.764;4.332;2023-10-19T04:33:31;15.90;99.90
25582;DHT22;13462;50.764;4.332;2023-10-19T04:35:57;15.80;99.90
25582;DHT22;13462;50.764;4.332;2023-10-19T04:38:26;15.90;99.90
25582;DHT22;13462;50.764;4.332;2023-10-19T04:40:52;15.80;99.90
25582;DHT22;13462;50.764;4.332;2023-10-19T04:43:17;15.90;99.90
25582;DHT22;13462;50.764;4.332;2023-10-19T04:45:43;15.90;99.90
25582;DHT22;13462;50.764;4.332;2023-10-19T04:48:12;16.00;99.90
25582;DHT22;13462;50.764;4.332;2023-10-19T04:50:38;16.00;99.90
25582;DHT22;13462;50.764;4.332;2023-10-19T04:53:05;16.10;99.90
25582;DHT22;13462;50.764;4.332;2023-10-19T04:55:30;15.90;99.90
25582;DHT22;13462;50.764;4.332;2023-10-19T04:57:56;15.90;99.90
25582;DHT22;13462;50.764;4.332;2023-10-19T05:00:22;15.90;99.90
25582;DHT22;13462;50.764;4.332;2023-10-19T05:02:50;15.90;99.90
25582;DHT22;13462;50.764;4.332;2023-10-19T05:05:17;15.90;99.90
25582;DHT22;13462;50.764;4.332;2023-10-19T05:07:43;16.00;99.90
25582;DHT22;13462;50.764;4.332;2023-10-19T05:10:09;16.00;99.90
25582;DHT22;13462;50.764;4.332;2023-10-19T05:12:36;16.00;99.90
25582;DHT22;13462;50.764;4.332;2023-10-19T05:15:02;15.90;99.90
25582;DHT22;13462;50.764;4.332;2023-10-19T05:17:28;16.00;99.90
25582;DHT22;13462;50.764;4.332;2023-10-19T05:19:53;15.90;99.90
25582;DHT22;13462;50.764;4.332;2023-10-19T05:22:19;16.00;99.90
25582;DHT22;13462;50.764;4.332;2023-10-19T05:24:46;16.00;99.90
25582;DHT22;13462;50.764;4.332;2023-10-19T05:27:13;16.10;99.90
25582;DHT22;13462;50.764;4.332;2023-10-19T05:29:38;16.00;99.90
25582;DHT22;13462;50.764;4.332;2023-10-19T05:32:05;16.10;99.90
25582;DHT22;13462;50.764;4.332;2023-10-19T05:34:31;16.00;99.90
25582;DHT22;13462;50.764;4.332;2023-10-19T05:37:00;16.00;99.90
25582;DHT22;13462;50.764;4.332;2023-10-19T05:39:30;16.00;99.90
25582;DHT22;13462;50.764;4.332;2023-10-19T05:41:56;16.10;99.90
25582;DHT22;13462;50.764;4.332;2023-10-19T05:44:26;16.10;99.90
25582;DHT22;13462;50.764;4.332;2023-10-19T05:46:52;16.00;99.90
25582;DHT22;13462;50.764;4.332;2023-10-19T05:49:18;16.00;99.90
25582;DHT22;13462;50.764;4.332;2023-10-19T05:51:43;16.00;99.90
25582;DHT22;13462;50.764;4.332;2023-10-19T05:54:12;16.00;99.90
25582;DHT22;13462;50.764;4.332;2023-10-19T05:56:37;15.90;99.90
25582;DHT22;13462;50.764;4.332;2023-10-19T05:59:03;16.00;99.90
25582;DHT22;13462;50.764;4.332;2023-10-19T06:01:30;16.10;99.90
25582;DHT22;13462;50.764;4.332;2023-10-19T06:03:55;16.00;99.90
25582;DHT22;13462;50.764;4.332;2023-10-19T06:06:22;16.00;99.90
25582;DHT22;13462;50.764;4.332;2023-10-19T06:08:48;15.90;99.90
25582;DHT22;13462;50.764;4.332;2023-10-19T06:11:15;15.90;99.90
25582;DHT22;13462;50.764;4.332;2023-10-19T06:13:40;15.90;99.90
25582;DHT22;13462;50.764;4.332;2023-10-19T06:16:06;15.90;99.90
25582;DHT22;13462;50.764;4.332;2023-10-19T06:18:32;15.90;99.90
25582;DHT22;13462;50.764;4.332;2023-10-19T06:20:57;15.90;99.90
25582;DHT22;13462;50.764;4.332;2023-10-19T06:23:23;15.90;99.90
25582;DHT22;13462;50.764;4.332;2023-10-19T06:25:48;15.90;99.90
25582;DHT22;13462;50.764;4.332;2023-10-19T06:28:16;16.00;99.90
25582;DHT22;13462;50.764;4.332;2023-10-19T06:30:42;16.00;99.90
25582;DHT22;13462;50.764;4.332;2023-10-19T06:33:08;16.00;99.90
25582;DHT22;13462;50.764;4.332;2023-10-19T06:35:34;15.90;99.90
25582;DHT22;13462;50.764;4.332;2023-10-19T06:38:02;16.00;99.90
25582;DHT22;13462;50.764;4.332;2023-10-19T06:40:29;15.90;99.90
25582;DHT22;13462;50.764;4.332;2023-10-19T06:42:57;15.90;99.90
25582;DHT22;13462;50.764;4.332;2023-10-19T06:45:24;15.90;99.90
25582;DHT22;13462;50.764;4.332;2023-10-19T06:47:51;15.90;99.90
25582;DHT22;13462;50.764;4.332;2023-10-19T06:50:19;15.90;99.90
25582;DHT22;13462;50.764;4.332;2023-10-19T06:52:46;15.90;99.90
25582;DHT22;13462;50.764;4.332;2023-10-19T06:55:18;15.90;99.90
25582;DHT22;13462;50.764;4.332;2023-10-19T06:57:52;15.90;99.90
25582;DHT22;13462;50.764;4.332;2023-10-19T07:00:19;15.90;99.90
25582;DHT22;13462;50.764;4.332;2023-10-19T07:02:47;16.00;99.90
25582;DHT22;13462;50.764;4.332;2023-10-19T07:05:16;16.00;99.90
25582;DHT22;13462;50.764;4.332;2023-10-19T07:07:47;16.10;99.90
25582;DHT22;13462;50.764;4.332;2023-10-19T07:10:14;16.10;99.90
25582;DHT22;13462;50.764;4.332;2023-10-19T07:12:44;16.10;99.90
25582;DHT22;13462;50.764;4.332;2023-10-19T07:15:10;16.00;99.90
25582;DHT22;13462;50.764;4.332;2023-10-19T07:17:43;16.00;99.90
25582;DHT22;13462;50.764;4.332;2023-10-19T07:20:10;16.00;99.90
25582;DHT22;13462;50.764;4.332;2023-10-19T07:22:51;16.10;99.90
25582;DHT22;13462;50.764;4.332;2023-10-19T07:25:17;16.10;99.90
25582;DHT22;13462;50.764;4.332;2023-10-19T07:27:49;16.10;99.90
25582;DHT22;13462;50.764;4.332;2023-10-19T07:30:19;16.20;99.90
25582;DHT22;13462;50.764;4.332;2023-10-19T07:32:48;16.20;99.90
25582;DHT22;13462;50.764;4.332;2023-10-19T07:35:17;16.20;99.90
25582;DHT22;13462;50.764;4.332;2023-10-19T07:37:44;16.20;99.90
25582;DHT22;13462;50.764;4.332;2023-10-19T07:40:10;16.20;99.90
25582;DHT22;13462;50.764;4.332;2023-10-19T07:42:42;16.20;99.90
25582;DHT22;13462;50.764;4.332;2023-10-19T07:45:08;16.20;99.90
25582;DHT22;13462;50.764;4.332;2023-10-19T07:47:41;16.50;99.90
25582;DHT22;13462;50.764;4.332;2023-10-19T07:50:13;16.70;99.90
25582;DHT22;13462;50.764;4.332;2023-10-19T07:52:50;16.70;99.90
25582;DHT22;13462;50.764;4.332;2023-10-19T07:55:17;16.70;99.90
25582;DHT22;13462;50.764;4.332;2023-10-19T07:57:43;16.60;99.90
25582;DHT22;13462;50.764;4.332;2023-10-19T08:00:11;16.70;99.90
25582;DHT22;13462;50.764;4.332;2023-10-19T08:02:39;16.70;99.90
25582;DHT22;13462;50.764;4.332;2023-10-19T08:05:07;16.80;99.90
25582;DHT22;13462;50.764;4.332;2023-10-19T08:07:33;16.90;99.90
25582;DHT22;13462;50.764;4.332;2023-10-19T08:10:00;16.90;99.90
25582;DHT22;13462;50.764;4.332;2023-10-19T08:12:26;17.00;99.90
25582;DHT22;13462;50.764;4.332;2023-10-19T08:14:53;17.10;99.90
25582;DHT22;13462;50.764;4.332;2023-10-19T08:17:18;17.20;99.90
25582;DHT22;13462;50.764;4.332;2023-10-19T08:19:44;17.40;99.90
25582;DHT22;13462;50.764;4.332;2023-10-19T08:22:10;17.50;99.90
25582;DHT22;13462;50.764;4.332;2023-10-19T08:24:36;17.40;99.90
25582;DHT22;13462;50.764;4.332;2023-10-19T08:27:01;17.30;99.90
25582;DHT22;13462;50.764;4.332;2023-10-19T08:29:31;17.30;99.90
25582;DHT22;13462;50.764;4.332;2023-10-19T08:31:57;17.40;99.90
25582;DHT22;13462;50.764;4.332;2023-10-19T08:34:22;17.50;99.90
25582;DHT22;13462;50.764;4.332;2023-10-19T08:36:50;17.50;99.90
25582;DHT22;13462;50.764;4.332;2023-10-19T08:39:17;17.50;99.90
25582;DHT22;13462;50.764;4.332;2023-10-19T08:41:43;17.40;99.90
25582;DHT22;13462;50.764;4.332;2023-10-19T08:44:09;17.40;99.90
25582;DHT22;13462;50.764;4.332;2023-10-19T08:46:41;17.40;99.90
25582;DHT22;13462;50.764;4.332;2023-10-19T08:49:14;17.40;99.90
25582;DHT22;13462;50.764;4.332;2023-10-19T08:51:44;17.30;99.90
25582;DHT22;13462;50.764;4.332;2023-10-19T08:54:11;17.30;99.90
25582;DHT22;13462;50.764;4.332;2023-10-19T08:56:38;17.20;99.90
25582;DHT22;13462;50.764;4.332;2023-10-19T08:59:04;17.30;99.90
25582;DHT22;13462;50.764;4.332;2023-10-19T09:01:31;17.30;99.90
25582;DHT22;13462;50.764;4.332;2023-10-19T09:04:00;17.40;99.90
25582;DHT22;13462;50.764;4.332;2023-10-19T09:06:26;17.40;99.90
25582;DHT22;13462;50.764;4.332;2023-10-19T09:08:54;17.50;99.90
25582;DHT22;13462;50.764;4.332;2023-10-19T09:11:20;17.60;99.90
25582;DHT22;13462;50.764;4.332;2023-10-19T09:13:48;17.70;99.90
25582;DHT22;13462;50.764;4.332;2023-10-19T09:16:20;17.70;99.90
25582;DHT22;13462;50.764;4.332;2023-10-19T09:18:49;17.70;99.90
25582;DHT22;13462;50.764;4.332;2023-10-19T09:21:19;17.80;99.90
25582;DHT22;13462;50.764;4.332;2023-10-19T09:23:53;17.90;99.90
25582;DHT22;13462;50.764;4.332;2023-10-19T09:26:20;18.10;99.90
25582;DHT22;13462;50.764;4.332;2023-10-19T09:28:48;18.30;99.90
25582;DHT22;13462;50.764;4.332;2023-10-19T09:31:14;18.50;99.90
25582;DHT22;13462;50.764;4.332;2023-10-19T09:33:42;18.50;99.90
25582;DHT22;13462;50.764;4.332;2023-10-19T09:36:12;18.50;99.90
25582;DHT22;13462;50.764;4.332;2023-10-19T09:38:48;18.40;99.90
25582;DHT22;13462;50.764;4.332;2023-10-19T09:41:19;18.30;99.90
25582;DHT22;13462;50.764;4.332;2023-10-19T09:43:47;18.20;99.90
25582;DHT22;13462;50.764;4.332;2023-10-19T09:46:26;18.30;99.90
25582;DHT22;13462;50.764;4.332;2023-10-19T09:48:53;18.40;99.90
25582;DHT22;13462;50.764;4.332;2023-10-19T09:51:19;18.50;99.90
25582;DHT22;13462;50.764;4.332;2023-10-19T09:53:53;18.60;99.90
25582;DHT22;13462;50.764;4.332;2023-10-19T09:56:30;18.70;99.90
25582;DHT22;13462;50.764;4.332;2023-10-19T09:59:28;18.70;99.90
25582;DHT22;13462;50.764;4.332;2023-10-19T10:02:15;18.70;99.90
25582;DHT22;13462;50.764;4.332;2023-10-19T10:04:44;18.90;99.90
25582;DHT22;13462;50.764;4.332;2023-10-19T10:07:11;19.10;99.90
25582;DHT22;13462;50.764;4.332;2023-10-19T10:09:41;19.10;99.90
25582;DHT22;13462;50.764;4.332;2023-10-19T10:12:20;19.00;99.90
25582;DHT22;13462;50.764;4.332;2023-10-19T10:15:05;19.00;99.90
25582;DHT22;13462;50.764;4.332;2023-10-19T10:17:36;18.90;99.90
25582;DHT22;13462;50.764;4.332;2023-10-19T10:22:41;19.00;99.90
25582;DHT22;13462;50.764;4.332;2023-10-19T10:25:28;19.00;99.90
25582;DHT22;13462;50.764;4.332;2023-10-19T10:27:54;19.00;99.90
25582;DHT22;13462;50.764;4.332;2023-10-19T10:30:20;19.00;99.90
25582;DHT22;13462;50.764;4.332;2023-10-19T10:32:48;18.90;99.90
25582;DHT22;13462;50.764;4.332;2023-10-19T10:38:10;18.80;99.90
25582;DHT22;13462;50.764;4.332;2023-10-19T10:40:47;18.80;99.90
25582;DHT22;13462;50.764;4.332;2023-10-19T10:43:13;18.80;99.90
25582;DHT22;13462;50.764;4.332;2023-10-19T10:45:39;18.80;99.90
25582;DHT22;13462;50.764;4.332;2023-10-19T10:48:17;18.70;99.90
25582;DHT22;13462;50.764;4.332;2023-10-19T10:50:44;18.70;99.90
25582;DHT22;13462;50.764;4.332;2023-10-19T10:53:12;18.70;99.90
25582;DHT22;13462;50.764;4.332;2023-10-19T10:55:38;18.80;99.90
25582;DHT22;13462;50.764;4.332;2023-10-19T10:58:04;18.70;99.90
25582;DHT22;13462;50.764;4.332;2023-10-19T11:00:30;18.60;99.90
25582;DHT22;13462;50.764;4.332;2023-10-19T11:03:08;18.60;99.90
25582;DHT22;13462;50.764;4.332;2023-10-19T11:05:36;18.70;99.90
25582;DHT22;13462;50.764;4.332;2023-10-19T11:08:09;18.70;99.90
25582;DHT22;13462;50.764;4.332;2023-10-19T11:10:35;18.70;99.90
25582;DHT22;13462;50.764;4.332;2023-10-19T11:13:07;18.70;99.90
25582;DHT22;13462;50.764;4.332;2023-10-19T11:15:37;18.80;99.90
25582;DHT22;13462;50.764;4.332;2023-10-19T11:18:03;18.80;99.90
25582;DHT22;13462;50.764;4.332;2023-10-19T11:20:29;18.80;99.90
25582;DHT22;13462;50.764;4.332;2023-10-19T11:22:56;18.80;99.90
25582;DHT22;13462;50.764;4.332;2023-10-19T11:25:23;18.80;99.90
25582;DHT22;13462;50.764;4.332;2023-10-19T11:27:49;18.80;99.90
25582;DHT22;13462;50.764;4.332;2023-10-19T11:30:25;18.70;99.90
25582;DHT22;13462;50.764;4.332;2023-10-19T11:32:52;18.70;99.90
25582;DHT22;13462;50.764;4.332;2023-10-19T11:35:19;18.60;99.90
25582;DHT22;13462;50.764;4.332;2023-10-19T11:37:51;18.50;99.90
25582;DHT22;13462;50.764;4.332;2023-10-19T11:40:21;18.50;99.90
25582;DHT22;13462;50.764;4.332;2023-10-19T11:42:48;18.50;99.90
25582;DHT22;13462;50.764;4.332;2023-10-19T11:45:13;18.50;99.90
25582;DHT22;13462;50.764;4.332;2023-10-19T11:47:39;18.50;99.90
25582;DHT22;13462;50.764;4.332;2023-10-19T11:50:05;18.40;99.90
25582;DHT22;13462;50.764;4.332;2023-10-19T11:52:31;18.40;99.90
25582;DHT22;13462;50.764;4.332;2023-10-19T11:54:58;18.30;99.90
25582;DHT22;13462;50.764;4.332;2023-10-19T11:57:24;18.30;99.90
25582;DHT22;13462;50.764;4.332;2023-10-19T11:59:50;18.30;99.90
25582;DHT22;13462;50.764;4.332;2023-10-19T12:02:20;18.30;99.90
25582;DHT22;13462;50.764;4.332;2023-10-19T12:04:47;18.30;99.90
25582;DHT22;13462;50.764;4.332;2023-10-19T12:07:12;18.30;99.90
25582;DHT22;13462;50.764;4.332;2023-10-19T12:09:38;18.40;99.90
25582;DHT22;13462;50.764;4.332;2023-10-19T12:12:07;18.40;99.90
25582;DHT22;13462;50.764;4.332;2023-10-19T12:14:36;18.30;99.90
25582;DHT22;13462;50.764;4.332;2023-10-19T12:17:01;18.30;99.90
25582;DHT22;13462;50.764;4.332;2023-10-19T12:19:29;18.20;99.90
25582;DHT22;13462;50.764;4.332;2023-10-19T12:21:56;18.20;99.90
25582;DHT22;13462;50.764;4.332;2023-10-19T12:24:21;18.20;99.90
25582;DHT22;13462;50.764;4.332;2023-10-19T12:26:47;18.20;99.90
25582;DHT22;13462;50.764;4.332;2023-10-19T12:29:13;18.10;99.90
25582;DHT22;13462;50.764;4.332;2023-10-19T12:31:42;18.20;99.90
25582;DHT22;13462;50.764;4.332;2023-10-19T12:34:08;18.30;99.90
25582;DHT22;13462;50.764;4.332;2023-10-19T12:36:34;18.70;99.90
25582;DHT22;13462;50.764;4.332;2023-10-19T12:39:00;19.40;99.90
25582;DHT22;13462;50.764;4.332;2023-10-19T12:41:28;19.90;99.90
25582;DHT22;13462;50.764;4.332;2023-10-19T12:43:54;20.20;99.90
25582;DHT22;13462;50.764;4.332;2023-10-19T12:46:26;20.50;99.90
25582;DHT22;13462;50.764;4.332;2023-10-19T12:48:53;21.40;99.90
25582;DHT22;13462;50.764;4.332;2023-10-19T12:51:25;23.00;99.90
25582;DHT22;13462;50.764;4.332;2023-10-19T12:53:51;24.40;99.90
25582;DHT22;13462;50.764;4.332;2023-10-19T12:56:18;25.20;99.90
25582;DHT22;13462;50.764;4.332;2023-10-19T12:58:44;25.80;99.90
25582;DHT22;13462;50.764;4.332;2023-10-19T13:01:09;25.60;99.90
25582;DHT22;13462;50.764;4.332;2023-10-19T13:03:42;25.50;99.90
25582;DHT22;13462;50.764;4.332;2023-10-19T13:06:11;26.20;99.90
25582;DHT22;13462;50.764;4.332;2023-10-19T13:08:37;26.60;99.90
25582;DHT22;13462;50.764;4.332;2023-10-19T13:11:09;26.30;99.90
25582;DHT22;13462;50.764;4.332;2023-10-19T13:13:41;26.40;99.90
25582;DHT22;13462;50.764;4.332;2023-10-19T13:16:06;26.60;99.90
25582;DHT22;13462;50.764;4.332;2023-10-19T13:18:35;26.10;99.90
25582;DHT22;13462;50.764;4.332;2023-10-19T13:21:01;26.10;99.90
25582;DHT22;13462;50.764;4.332;2023-10-19T13:23:31;26.20;99.90
25582;DHT22;13462;50.764;4.332;2023-10-19T13:25:59;26.40;99.90
25582;DHT22;13462;50.764;4.332;2023-10-19T13:28:42;26.70;99.90
25582;DHT22;13462;50.764;4.332;2023-10-19T13:31:08;26.70;99.90
25582;DHT22;13462;50.764;4.332;2023-10-19T13:33:39;26.70;99.90
25582;DHT22;13462;50.764;4.332;2023-10-19T13:36:06;26.70;99.90
25582;DHT22;13462;50.764;4.332;2023-10-19T13:38:31;26.70;99.90
25582;DHT22;13462;50.764;4.332;2023-10-19T13:40:58;26.10;99.90
25582;DHT22;13462;50.764;4.332;2023-10-19T13:43:23;26.00;99.90
25582;DHT22;13462;50.764;4.332;2023-10-19T13:45:49;26.10;99.90
25582;DHT22;13462;50.764;4.332;2023-10-19T13:48:18;26.00;99.90
25582;DHT22;13462;50.764;4.332;2023-10-19T13:50:46;25.80;99.90
25582;DHT22;13462;50.764;4.332;2023-10-19T13:53:16;25.80;99.90
25582;DHT22;13462;50.764;4.332;2023-10-19T13:55:42;25.70;99.90
25582;DHT22;13462;50.764;4.332;2023-10-19T13:58:08;25.70;99.90
25582;DHT22;13462;50.764;4.332;2023-10-19T14:00:34;25.30;99.90
25582;DHT22;13462;50.764;4.332;2023-10-19T14:03:00;25.50;99.90
25582;DHT22;13462;50.764;4.332;2023-10-19T14:05:27;25.20;99.90
25582;DHT22;13462;50.764;4.332;2023-10-19T14:07:53;24.90;99.90
25582;DHT22;13462;50.764;4.332;2023-10-19T14:10:19;24.90;99.90
25582;DHT22;13462;50.764;4.332;2023-10-19T14:12:46;24.30;99.90
25582;DHT22;13462;50.764;4.332;2023-10-19T14:15:19;23.90;99.90
25582;DHT22;13462;50.764;4.332;2023-10-19T14:17:47;23.90;99.90
25582;DHT22;13462;50.764;4.332;2023-10-19T14:20:14;23.90;99.90
25582;DHT22;13462;50.764;4.332;2023-10-19T14:22:48;23.70;99.90
25582;DHT22;13462;50.764;4.332;2023-10-19T14:25:15;23.30;99.90
25582;DHT22;13462;50.764;4.332;2023-10-19T14:27:43;22.90;99.90
25582;DHT22;13462;50.764;4.332;2023-10-19T14:30:10;22.80;99.90
25582;DHT22;13462;50.764;4.332;2023-10-19T14:32:45;22.80;99.90
25582;DHT22;13462;50.764;4.332;2023-10-19T14:35:16;22.60;99.90
25582;DHT22;13462;50.764;4.332;2023-10-19T14:37:44;22.00;99.90
25582;DHT22;13462;50.764;4.332;2023-10-19T14:40:12;21.70;99.90
25582;DHT22;13462;50.764;4.332;2023-10-19T14:42:43;21.60;99.90
25582;DHT22;13462;50.764;4.332;2023-10-19T14:45:11;21.30;99.90
25582;DHT22;13462;50.764;4.332;2023-10-19T14:47:40;20.90;99.90
25582;DHT22;13462;50.764;4.332;2023-10-19T14:50:11;20.50;99.90
25582;DHT22;13462;50.764;4.332;2023-10-19T14:52:37;20.40;99.90
25582;DHT22;13462;50.764;4.332;2023-10-19T14:55:05;20.50;99.90
25582;DHT22;13462;50.764;4.332;2023-10-19T14:57:32;20.40;99.90
25582;DHT22;13462;50.764;4.332;2023-10-19T14:59:58;20.20;99.90
25582;DHT22;13462;50.764;4.332;2023-10-19T15:02:35;20.10;99.90
25582;DHT22;13462;50.764;4.332;2023-10-19T15:05:01;19.90;99.90
25582;DHT22;13462;50.764;4.332;2023-10-19T15:07:29;19.80;99.90
25582;DHT22;13462;50.764;4.332;2023-10-19T15:09:55;19.70;99.90
25582;DHT22;13462;50.764;4.332;2023-10-19T15:12:20;19.60;99.90
25582;DHT22;13462;50.764;4.332;2023-10-19T15:14:46;19.50;99.90
25582;DHT22;13462;50.764;4.332;2023-10-19T15:17:12;19.40;99.90
25582;DHT22;13462;50.764;4.332;2023-10-19T15:19:37;19.30;99.90
25582;DHT22;13462;50.764;4.332;2023-10-19T15:22:03;19.20;99.90
25582;DHT22;13462;50.764;4.332;2023-10-19T15:24:29;19.10;99.90
25582;DHT22;13462;50.764;4.332;2023-10-19T15:26:54;19.00;99.90
25582;DHT22;13462;50.764;4.332;2023-10-19T15:29:20;19.00;99.90
25582;DHT22;13462;50.764;4.332;2023-10-19T15:31:45;18.90;99.90
25582;DHT22;13462;50.764;4.332;2023-10-19T15:34:11;18.90;99.90
25582;DHT22;13462;50.764;4.332;2023-10-19T15:36:38;18.90;99.90
25582;DHT22;13462;50.764;4.332;2023-10-19T15:39:04;18.80;99.90
25582;DHT22;13462;50.764;4.332;2023-10-19T15:41:30;18.80;99.90
25582;DHT22;13462;50.764;4.332;2023-10-19T15:43:55;18.80;99.90
25582;DHT22;13462;50.764;4.332;2023-10-19T15:46:21;18.80;99.90